Tiempo atmosférico en la estación meteorológica de Baztan, Irurita, Navarra (183 m.)



Fecha
DESCASC
Temp. máxima en grados centígrados (hora)
DESCASC
Temp. mínima en grados centígrados (hora)
DESCASC
Temp. media en grados centígrados
DESCASC
Racha de viento máxima en m/sg (hora)
DESCASC
Velocidad máxima media en intervalos de 10 minutos(hora)
DESCASC
Precipitaciones diarias en mm
DESCASC
Precipitaciones de 00:00 a 06:00 en mm
DESCASC
Precipitaciones de 06:00 a 12:00 en mm
DESCASC
Precipitaciones de 12:00 a 18:00 en mm
DESCASC
Precipitaciones de 18:00 a 24:00 en mm
DESCASC
05-12-2019 14 (13:30) 1.5 (23:40) 7.8 4.17 (15:10) 2.5 (15:30) 0 0 0 0 0
04-12-2019 10.4 (16:10) -0.4 (08:30) 5 6.94 (16:50) 3.89 (16:50) 0.1 0.1 0 0 0
03-12-2019 7.2 (15:50) -0.1 (23:59) 3.5 3.61 (03:50) 1.67 (03:50) 0.2 0.2 0 0 0
02-12-2019 9.8 (13:30) 5.2 (00:00) 7.5 5 (16:50) 3.33 (17:00) 0.5 0 0.5 0 0
01-12-2019 14.2 (15:10) 3.7 (00:00) 8.9 4.44 (15:20) 1.39 (15:20) 2.3 0.1 0 2.2 0
30-11-2019 17.8 (11:40) 4.5 (00:00) 11.1 11.94 (11:30) 5 (11:20) 23.4 0 0 19.4 4
29-11-2019 17.5 (15:30) 4.8 (00:00) 11.2 3.06 (15:20) 1.67 (15:20) 2.7 2.6 0.1 0 0
28-11-2019 14.3 (04:00) 8.1 (00:00) 11.2 9.72 (04:00) 4.44 (04:00) 5.1 0.1 0.3 1.3 3.4
27-11-2019 16.8 (00:10) 8.1 (00:00) 12.4 12.5 (02:10) 6.11 (02:40) 1 0 0 0 1
26-11-2019 17.9 (18:50) 6.2 (00:00) 12 13.61 (15:50) 5.83 (15:40) 3.1 0.1 0 0.1 2.9
25-11-2019 17.1 (14:00) 5.5 (00:00) 11.3 6.39 (15:00) 2.22 (15:00) 0 0 0 0 0
24-11-2019 12.7 (14:50) 6.4 (00:00) 9.5 3.06 (22:20) 1.39 (00:20) 23.1 11.3 10.6 0 1.2
23-11-2019 13.5 (03:20) 8.2 (00:00) 10.8 12.78 (11:50) 5 (03:10) 34.9 1 16.1 7 10.8
22-11-2019 14.3 (14:30) 3 (00:00) 8.7 16.11 (17:00) 5.56 (14:20) 5.9 0 0 0.3 5.6
21-11-2019 15 (13:50) 2.3 (00:00) 8.6 10.28 (01:20) 3.89 (14:40) 0 0 0 0 0
20-11-2019 12.7 (15:30) -0.1 (00:00) 6.3 11.67 (13:50) 5.83 (15:00) 0 0 0 0 0
19-11-2019 11.1 (15:30) 0.8 (00:00) 6 2.22 (09:50) 1.11 (17:10) 0 0 0 0 0
18-11-2019 8.5 (13:40) 2.6 (00:00) 5.5 4.72 (03:50) 2.22 (12:50) 6.8 6.7 0.1 0 0
17-11-2019 9.1 (16:00) 5.6 (00:00) 7.4 4.17 (11:40) 1.39 (11:40) 12.4 1.6 1.6 5.7 3.5
16-11-2019 6.4 (20:20) 2.1 (00:00) 4.3 4.44 (14:20) 1.67 (12:50) 21.4 0 2.9 15.3 3.2
15-11-2019 8.9 (15:10) 2.2 (00:00) 5.5 8.06 (09:40) 2.22 (08:20) 10.8 1.9 4.2 3.2 1.5
14-11-2019 12.5 (15:20) 4 (00:00) 8.3 8.06 (15:00) 3.61 (13:30) 18.4 13.5 0.4 0 4.5
13-11-2019 12.3 (12:20) 7.1 (00:00) 9.7 5.28 (16:00) 1.94 (12:30) 1.1 0.1 0.6 0.4 0
12-11-2019 10.8 (15:10) 6.1 (00:00) 8.5 1.94 (08:40) 0.83 (07:50) 14.3 4.4 8.3 1.5 0.1
11-11-2019 10.5 (15:10) 4 (03:30) 7.3 5.83 (15:10) 1.67 (15:30) 8.9 0 0.8 5.6 2.5
10-11-2019 7.4 (00:20) 4.2 (00:00) 5.8 4.17 (03:10) 2.22 (03:30) 31.6 9.4 16.3 5.8 0.1
09-11-2019 11.7 (13:30) 7.1 (00:00) 9.4 10.28 (20:30) 2.78 (13:40) 35.3 6.4 9.1 3.7 16.1
08-11-2019 9.9 (20:10) 4.2 (00:00) 7 8.06 (20:20) 2.78 (20:30) 40.2 5 8 14.1 13.1

Gráficas

Temp. máximas Temp. mínimas Temp. medias Precipitaciones Rachas de viento máximas Velocidades máximas media en intervalos de 10 minutos

Datos horarios

Fecha y hora oficial Temperatura (ºC) Velocidad del viento (km/h) Dirección del viento Racha (km/h) Dirección de racha Precipitación (mm) Presión (hPa) Tendencia (hPa) Humedad (%)
2019-12-07 23:00:00 6.1 0 Calma 2 Sudeste 0 -- -- 92
2019-12-07 22:00:00 7.8 0 Calma 5 Sur 0 -- -- 91
2019-12-07 21:00:00 9.3 0 Calma 5 Norte 0 -- -- 89
2019-12-07 20:00:00 10.9 0 Calma 3 Noroeste 0 -- -- 86
2019-12-07 19:00:00 11.7 2 Sudoeste 5 Sudoeste 0 -- -- 80
2019-12-07 18:00:00 12.5 0 Calma 8 Sudeste 0 -- -- 74
2019-12-07 17:00:00 13.3 0 Calma 6 Sur 0 -- -- 73
2019-12-07 16:00:00 14.6 4 Sur 5 Sudoeste 0 -- -- 60
2019-12-07 15:00:00 15.6 2 Sur 5 Sudoeste 0 -- -- 53
2019-12-07 14:00:00 13.4 2 Sudeste 5 Este 0 -- -- 59
2019-12-07 13:00:00 10.9 0 Calma 4 Sudoeste 0 -- -- 78
2019-12-07 12:00:00 8 0 Calma 4 Noroeste 0 -- -- 93
2019-12-07 11:00:00 5.3 0 Calma 4 Este 0 -- -- 97
2019-12-07 10:00:00 3.5 0 Calma 3 Noroeste 0 -- -- 97
2019-12-07 09:00:00 2.8 0 Calma 2 Nordeste 0 -- -- 97
2019-12-07 08:00:00 2.4 0 Calma 2 Sur 0 -- -- 97
2019-12-07 07:00:00 2 0 Calma 2 Nordeste 0 -- -- 97
2019-12-07 06:00:00 2 0 Calma 3 Sudeste 0 -- -- 96
2019-12-07 05:00:00 2.5 0 Calma 4 Sur 0 -- -- 96
2019-12-07 04:00:00 3.6 2 Sur 7 Norte 0 -- -- 96
2019-12-07 03:00:00 4.6 0 Calma 4 Norte 0 -- -- 96
2019-12-07 02:00:00 5 0 Calma 3 Sudoeste 0 -- -- 96
2019-12-07 01:00:00 5.1 0 Calma 2 Sudeste 0 -- -- 96
2019-12-07 00:00:00 4.7 2 Noroeste 5 Noroeste 0 -- -- 96
2019-12-06 23:00:00 3.8 0 Calma 9 Noroeste 0 -- -- 96
2019-12-06 22:00:00 3.1 0 Calma 3 Sudeste 0 -- -- 94
2019-12-06 21:00:00 4.2 0 Calma 5 Sur 0 -- -- 93
2019-12-06 20:00:00 5.2 0 Calma 4 Sur 0 -- -- 90
2019-12-06 19:00:00 7.2 0 Calma 4 Sudoeste 0 -- -- 85
2019-12-06 18:00:00 9.4 0 Calma 6 Sur 0 -- -- 77
2019-12-06 17:00:00 12.8 0 Calma 11 Sudoeste 0 -- -- 61
2019-12-06 16:00:00 16.1 2 Sudoeste 7 Noroeste 0 -- -- 50
2019-12-06 15:00:00 15.5 4 Noroeste 12 Noroeste 0 -- -- 52
2019-12-06 14:00:00 11.9 3 Norte 10 Noroeste 0 -- -- 75
2019-12-06 13:00:00 7.5 0 Calma 12 Nordeste 0 -- -- 92
2019-12-06 12:00:00 5 0 Calma 5 Sudeste 0 -- -- 97
2019-12-06 11:00:00 3.8 0 Calma 5 Sudeste 0 -- -- 97
2019-12-06 10:00:00 3.6 0 Calma 4 Nordeste 0 -- -- 97
2019-12-06 09:00:00 3.2 0 Calma 3 Sudoeste 0 -- -- 97
2019-12-06 08:00:00 3.1 0 Calma 2 Oeste 0 -- -- 97
2019-12-06 07:00:00 2.8 0 Calma 4 Sur 0 -- -- 97
2019-12-06 06:00:00 2.7 0 Calma 4 Sur 0 -- -- 97
2019-12-06 05:00:00 2.5 0 Calma 3 Sur 0 -- -- 97
2019-12-06 04:00:00 2.5 0 Calma 3 Norte 0 -- -- 97
2019-12-06 03:00:00 2.5 0 Calma 3 Sur 0 -- -- 97
2019-12-06 02:00:00 2.3 0 Calma 0 Calma 0 -- -- 97
2019-12-06 01:00:00 1.5 0 Calma 3 Sur 0 -- -- 97
2019-12-06 00:00:00 1.6 0 Calma 2 Sudeste 0 -- -- 96
2019-12-05 23:00:00 2.3 0 Calma 2 Sudoeste 0 -- -- 95
2019-12-05 22:00:00 2.4 0 Calma 2 Sudoeste 0 -- -- 95
2019-12-05 21:00:00 3.4 0 Calma 5 Sudoeste 0 -- -- 95
2019-12-05 20:00:00 4.4 0 Calma 4 Sudoeste 0 -- -- 92
2019-12-05 19:00:00 5.5 0 Calma 4 Norte 0 -- -- 88
2019-12-05 18:00:00 7.4 2 Sur 8 Norte 0 -- -- 81
2019-12-05 17:00:00 11 5 Norte 13 Nordeste 0 -- -- 64
2019-12-05 16:00:00 12.7 6 Norte 15 Nordeste 0 -- -- 55
2019-12-05 15:00:00 13.5 7 Nordeste 15 Este 0 -- -- 51
2019-12-05 14:00:00 13.5 6 Nordeste 15 Este 0 -- -- 51
2019-12-05 13:00:00 12.8 4 Sur 6 Sur 0 -- -- 59
2019-12-05 12:00:00 10.6 2 Sudeste 5 Sur 0 -- -- 73
2019-12-05 11:00:00 8.5 0 Calma 4 Este 0 -- -- 83
2019-12-05 10:00:00 6.8 2 Noroeste 4 Norte 0 -- -- 94
2019-12-05 09:00:00 6.9 0 Calma 3 Noroeste 0 -- -- 94
2019-12-05 08:00:00 7 0 Calma 4 Noroeste 0 -- -- 93
2019-12-05 07:00:00 6.9 0 Calma 3 Noroeste 0 -- -- 93
2019-12-05 06:00:00 7 0 Calma 3 Sudoeste 0 -- -- 93
2019-12-05 05:00:00 6.8 0 Calma 3 Noroeste 0 -- -- 92
2019-12-05 04:00:00 6.8 0 Calma 0 Calma 0 -- -- 92
2019-12-05 03:00:00 7.1 0 Calma 3 Sudeste 0 -- -- 89
2019-12-05 02:00:00 7.4 0 Calma 9 Nordeste 0 -- -- 86
2019-12-05 01:00:00 7.6 0 Calma 11 Norte 0 -- -- 84
2019-12-05 00:00:00 6.9 3 Este 8 Nordeste 0 -- -- 93
2019-12-04 23:00:00 6.5 0 Calma 3 Sudoeste 0 -- -- 92
2019-12-04 22:00:00 7.6 2 Sur 6 Sur 0 -- -- 92
2019-12-04 21:00:00 7.8 0 Calma 6 Este 0 -- -- 89
2019-12-04 20:00:00 7.9 0 Calma 4 Norte 0 -- -- 87
2019-12-04 19:00:00 8 0 Calma 9 Este 0 -- -- 86
2019-12-04 18:00:00 8.2 3 Este 16 Norte 0 -- -- 80
2019-12-04 17:00:00 8.7 10 Nordeste 25 Norte 0 -- -- 74
2019-12-04 16:00:00 9.8 0 Calma 4 Este 0 -- -- 69
2019-12-04 15:00:00 8.4 0 Calma 4 Noroeste 0 -- -- 78
2019-12-04 14:00:00 6.5 0 Calma 5 Sur 0 -- -- 86
2019-12-04 13:00:00 4.6 0 Calma 6 Nordeste 0 -- -- 95
2019-12-04 12:00:00 2.9 0 Calma 5 Sudeste 0 -- -- 97
2019-12-04 11:00:00 1.1 0 Calma 4 Nordeste 0 -- -- 97
2019-12-04 10:00:00 0.1 0 Calma 4 Nordeste 0 -- -- 97
2019-12-04 09:00:00 -0.2 0 Calma 4 Sur 0 -- -- 97
2019-12-04 08:00:00 -0.1 0 Calma 3 Sudeste 0 -- -- 97
2019-12-04 07:00:00 -0.2 0 Calma 5 Sudoeste 0 -- -- 97
2019-12-04 06:00:00 0 0 Calma 3 Norte 0 -- -- 97
2019-12-04 05:00:00 0.2 0 Calma 3 Sudoeste 0 -- -- 97
2019-12-04 04:00:00 0.1 0 Calma 4 Norte 0 -- -- 97
2019-12-04 03:00:00 0.4 0 Calma 4 Sudeste 0 -- -- 97
2019-12-04 02:00:00 0.5 0 Calma 3 Este 0.1 -- -- 97
2019-12-04 01:00:00 0.2 0 Calma 2 Noroeste 0 -- -- 97
2019-12-04 00:00:00 -0.1 0 Calma 3 Sudeste 0 -- -- 95
2019-12-03 23:00:00 0.2 0 Calma 2 Nordeste 0 -- -- 94
2019-12-03 22:00:00 1.1 0 Calma 4 Nordeste 0 -- -- 93
2019-12-03 21:00:00 2.4 0 Calma 5 Sur 0 -- -- 89
2019-12-03 20:00:00 3.9 2 Sur 5 Sur 0 -- -- 87
2019-12-03 19:00:00 5.5 0 Calma 10 Norte 0 -- -- 80
2019-12-03 18:00:00 6 2 Nordeste 6 Nordeste 0 -- -- 75
2019-12-03 17:00:00 6.8 0 Calma 7 Sudeste 0 -- -- 71
2019-12-03 16:00:00 7 0 Calma 3 Sur 0 -- -- 69
2019-12-03 15:00:00 7 0 Calma 3 Sur 0 -- -- 71
2019-12-03 14:00:00 6.6 0 Calma 4 Sur 0 -- -- 72
2019-12-03 13:00:00 6.3 0 Calma 5 Sudeste 0 -- -- 78
2019-12-03 12:00:00 5.9 0 Calma 6 Nordeste 0 -- -- 84
2019-12-03 11:00:00 5.3 3 Este 8 Este 0 -- -- 87
2019-12-03 10:00:00 5.1 0 Calma 3 Sur 0 -- -- 89
2019-12-03 09:00:00 5 0 Calma 3 Sur 0 -- -- 94
2019-12-03 08:00:00 4.8 0 Calma 4 Noroeste 0 -- -- 93
2019-12-03 07:00:00 4.8 0 Calma 2 Sur 0 -- -- 92
2019-12-03 06:00:00 4.9 0 Calma 4 Nordeste 0.2 -- -- 91
2019-12-03 05:00:00 5 4 Sudeste 8 Sudeste 0 -- -- 87
2019-12-03 04:00:00 5.1 6 Nordeste 13 Norte 0 -- -- 86
2019-12-03 03:00:00 5.1 0 Calma 2 Oeste 0 -- -- 92
2019-12-03 02:00:00 5.3 0 Calma 5 Sur 0 -- -- 90
2019-12-03 01:00:00 5.4 0 Calma 5 Noroeste 0 -- -- 89
2019-12-03 00:00:00 5.4 4 Norte 17 Norte 0 -- -- 84
2019-12-02 23:00:00 5.6 0 Calma 8 Norte 0 -- -- 86
2019-12-02 22:00:00 5.7 2 Sudeste 7 Norte 0 -- -- 85
2019-12-02 21:00:00 5.9 0 Calma 9 Noroeste 0 -- -- 85
2019-12-02 20:00:00 5.9 3 Noroeste 13 Norte 0 -- -- 82
2019-12-02 19:00:00 6.1 4 Norte 10 Norte 0 -- -- 83
2019-12-02 18:00:00 6.2 3 Este 14 Nordeste 0 -- -- 85
2019-12-02 17:00:00 6.8 12 Nordeste 18 Norte 0 -- -- 83
2019-12-02 16:00:00 8.1 6 Norte 15 Norte 0 -- -- 78
2019-12-02 15:00:00 8.6 8 Norte 17 Norte 0 -- -- 83
2019-12-02 14:00:00 9.4 9 Norte 15 Norte 0 -- -- 81
2019-12-02 13:00:00 9.5 5 Norte 17 Norte 0 -- -- 83
2019-12-02 12:00:00 9.4 7 Norte 14 Norte 0 -- -- 82
2019-12-02 11:00:00 8.3 0 Calma 4 Norte 0.1 -- -- 97
2019-12-02 10:00:00 6.8 0 Calma 3 Norte 0 -- -- 97
2019-12-02 09:00:00 6.2 0 Calma 4 Nordeste 0.2 -- -- 97
2019-12-02 08:00:00 5.7 0 Calma 4 Nordeste 0.1 -- -- 97
2019-12-02 07:00:00 5.6 2 Este 5 Sudeste 0.1 -- -- 97
2019-12-02 06:00:00 5.6 0 Calma 3 Sur 0 -- -- 97
2019-12-02 05:00:00 5.8 0 Calma 3 Sudoeste 0 -- -- 97
2019-12-02 04:00:00 5.8 0 Calma 3 Oeste 0 -- -- 97
2019-12-02 03:00:00 5.7 0 Calma 3 Sur 0 -- -- 97
2019-12-02 02:00:00 5.6 0 Calma 2 Nordeste 0 -- -- 96
2019-12-02 01:00:00 5.3 0 Calma 4 Sur 0 -- -- 96
2019-12-02 00:00:00 5.2 0 Calma 3 Noroeste 0 -- -- 96
2019-12-01 23:00:00 6.3 0 Calma 4 Norte 0 -- -- 96
2019-12-01 22:00:00 6.4 0 Calma 4 Este 0 -- -- 96
2019-12-01 21:00:00 6.1 0 Calma 4 Este 0 -- -- 95
2019-12-01 20:00:00 7.1 0 Calma 3 Sudoeste 0 -- -- 94
2019-12-01 19:00:00 7.9 0 Calma 3 Noroeste 0 -- -- 93
2019-12-01 18:00:00 9.5 0 Calma 3 Sudoeste 0 -- -- 91
2019-12-01 17:00:00 10.2 0 Calma 4 Noroeste 0 -- -- 87
2019-12-01 16:00:00 11.6 0 Calma 16 Nordeste 2.2 -- -- 83
2019-12-01 15:00:00 13.2 2 Sudeste 5 Sudoeste 0 -- -- 71
2019-12-01 14:00:00 11.3 2 Sudoeste 5 Sudoeste 0 -- -- 73
2019-12-01 13:00:00 9.7 0 Calma 5 Nordeste 0 -- -- 84
2019-12-01 12:00:00 7.9 2 Sudeste 5 Sudeste 0 -- -- 89
2019-12-01 11:00:00 4.9 0 Calma 4 Sur 0 -- -- 97
2019-12-01 10:00:00 4 0 Calma 4 Nordeste 0 -- -- 97
2019-12-01 09:00:00 4 0 Calma 5 Norte 0 -- -- 97
2019-12-01 08:00:00 4.1 0 Calma 5 Nordeste 0 -- -- 97
2019-12-01 07:00:00 4.5 0 Calma 6 Sudoeste 0 -- -- 97
2019-12-01 06:00:00 4.7 3 Sudoeste 6 Sudoeste 0 -- -- 97
2019-12-01 05:00:00 5.3 0 Calma 5 Este 0 -- -- 97
2019-12-01 04:00:00 5.8 0 Calma 6 Sudeste 0 -- -- 97
2019-12-01 03:00:00 6.1 0 Calma 6 Sudeste 0 -- -- 97
2019-12-01 02:00:00 6.3 3 Sudoeste 4 Sudoeste 0 -- -- 97
2019-12-01 01:00:00 7.1 3 Sur 5 Sur 0.1 -- -- 97
2019-12-01 00:00:00 7.1 0 Calma 5 Noroeste 0 -- -- 96
2019-11-30 23:00:00 7.7 0 Calma 3 Sudoeste 0 -- -- 96
2019-11-30 22:00:00 8.2 0 Calma 5 Sur 0 -- -- 96
2019-11-30 21:00:00 8.6 0 Calma 8 Sur 0 -- -- 95
2019-11-30 20:00:00 9.4 0 Calma 10 Noroeste 0.9 -- -- 96
2019-11-30 19:00:00 9.9 0 Calma 5 Sur 3.1 -- -- 96
2019-11-30 18:00:00 10.1 0 Calma 3 Nordeste 3.1 -- -- 95
2019-11-30 17:00:00 10.3 0 Calma 8 Sur 3.8 -- -- 94
2019-11-30 16:00:00 10.5 4 Sudoeste 8 Sur 4.9 -- -- 92
2019-11-30 15:00:00 11 2 Sur 17 Nordeste 5.8 -- -- 90
2019-11-30 14:00:00 12.7 7 Nordeste 18 Nordeste 1.8 -- -- 85
2019-11-30 13:00:00 15.9 3 Noroeste 31 Sur 0 -- -- 56
2019-11-30 12:00:00 17.3 15 Sur 43 Sur 0 -- -- 52
2019-11-30 11:00:00 15.1 4 Noroeste 31 Sudoeste 0 -- -- 61
2019-11-30 10:00:00 15.1 5 Norte 19 Sur 0 -- -- 60
2019-11-30 09:00:00 13.7 3 Sudoeste 42 Sur 0 -- -- 61
2019-11-30 08:00:00 7.6 0 Calma 10 Noroeste 0 -- -- 97
2019-11-30 07:00:00 6.4 0 Calma 15 Noroeste 0 -- -- 97
2019-11-30 06:00:00 5.2 0 Calma 10 Norte 0 -- -- 97
2019-11-30 05:00:00 5 0 Calma 4 Sur 0 -- -- 97
2019-11-30 04:00:00 5.2 0 Calma 4 Este 0 -- -- 97
2019-11-30 03:00:00 5.4 0 Calma 6 Sudoeste 0 -- -- 97
2019-11-30 02:00:00 5.5 0 Calma 4 Sudoeste 0 -- -- 97
2019-11-30 01:00:00 4.6 0 Calma 4 Norte 0 -- -- 96
2019-11-30 00:00:00 5.1 0 Calma 2 Sur 0 -- -- 96
2019-11-29 23:00:00 5.6 0 Calma 2 Sur 0 -- -- 96
2019-11-29 22:00:00 5.5 0 Calma 2 Sur 0 -- -- 95
2019-11-29 21:00:00 5.9 0 Calma 4 Noroeste 0 -- -- 95
2019-11-29 20:00:00 6.2 0 Calma 3 Sudoeste 0 -- -- 92
2019-11-29 19:00:00 7.6 0 Calma 2 Sur 0 -- -- 89
2019-11-29 18:00:00 9.4 0 Calma 8 Sudoeste 0 -- -- 82
2019-11-29 17:00:00 12 4 Sudoeste 6 Sudoeste 0 -- -- 73
2019-11-29 16:00:00 16 2 Sudoeste 11 Sudoeste 0 -- -- 56
2019-11-29 15:00:00 17 2 Sur 8 Sudoeste 0 -- -- 52
2019-11-29 14:00:00 15.3 0 Calma 7 Sudeste 0 -- -- 65
2019-11-29 13:00:00 14.8 3 Noroeste 8 Noroeste 0 -- -- 68
2019-11-29 12:00:00 13.4 2 Noroeste 4 Sur 0 -- -- 92
2019-11-29 11:00:00 11.7 0 Calma 4 Sudoeste 0 -- -- 96
2019-11-29 10:00:00 10.7 0 Calma 2 Noroeste 0.1 -- -- 97
2019-11-29 09:00:00 10.2 0 Calma 5 Sur 0 -- -- 97
2019-11-29 08:00:00 9.6 0 Calma 3 Norte 0 -- -- 97
2019-11-29 07:00:00 9.9 0 Calma 5 Noroeste 0 -- -- 97
2019-11-29 06:00:00 10.1 0 Calma 2 Sudoeste 0.1 -- -- 97
2019-11-29 05:00:00 10.2 0 Calma 3 Noroeste 0.2 -- -- 97
2019-11-29 04:00:00 10.2 2 Noroeste 7 Sudoeste 0.2 -- -- 97
2019-11-29 03:00:00 10.1 0 Calma 4 Sur 1.8 -- -- 97
2019-11-29 02:00:00 10 0 Calma 3 Sur 0.2 -- -- 97
2019-11-29 01:00:00 9.8 0 Calma 3 Sur 0.1 -- -- 97
2019-11-29 00:00:00 9.7 0 Calma 4 Sur 0 -- -- 97
2019-11-28 23:00:00 9.6 2 Norte 4 Sudoeste 0 -- -- 96
2019-11-28 22:00:00 9.8 0 Calma 3 Noroeste 0.1 -- -- 95
2019-11-28 21:00:00 10.4 0 Calma 5 Sudeste 0 -- -- 94
2019-11-28 20:00:00 10.6 0 Calma 4 Norte 0.5 -- -- 94
2019-11-28 19:00:00 11.1 0 Calma 14 Norte 2.8 -- -- 92
2019-11-28 18:00:00 11.8 3 Sur 11 Sur 1.1 -- -- 93
2019-11-28 17:00:00 12 0 Calma 5 Sur 0.1 -- -- 92
2019-11-28 16:00:00 12.8 2 Noroeste 4 Norte 0.1 -- -- 84
2019-11-28 15:00:00 13.7 0 Calma 3 Este 0 -- -- 74
2019-11-28 14:00:00 13.8 0 Calma 4 Noroeste 0 -- -- 72
2019-11-28 13:00:00 13.6 0 Calma 4 Nordeste 0 -- -- 74
2019-11-28 12:00:00 12.6 0 Calma 4 Nordeste 0 -- -- 82
2019-11-28 11:00:00 10.7 0 Calma 4 Noroeste 0 -- -- 92
2019-11-28 10:00:00 10.2 0 Calma 5 Sudoeste 0.1 -- -- 94
2019-11-28 09:00:00 9.5 0 Calma 5 Noroeste 0.1 -- -- 93
2019-11-28 08:00:00 9.3 2 Noroeste 5 Noroeste 0.1 -- -- 92
2019-11-28 07:00:00 9.8 0 Calma 9 Noroeste 0 -- -- 85
2019-11-28 06:00:00 11.9 5 Noroeste 17 Noroeste 0 -- -- 71
2019-11-28 05:00:00 12.8 5 Noroeste 22 Oeste 0 -- -- 63
2019-11-28 04:00:00 14 16 Sudoeste 35 Sudoeste 0 -- -- 54
2019-11-28 03:00:00 10.5 5 Oeste 19 Sur 0 -- -- 86
2019-11-28 02:00:00 8.4 0 Calma 6 Este 0 -- -- 96
2019-11-28 01:00:00 8.5 0 Calma 5 Sudoeste 0.1 -- -- 96
2019-11-28 00:00:00 8.8 0 Calma 4 Norte 0 -- -- 96
2019-11-27 23:00:00 8.9 0 Calma 4 Noroeste 0 -- -- 94
2019-11-27 22:00:00 10.3 0 Calma 4 Noroeste 0.2 -- -- 93
2019-11-27 21:00:00 10.6 0 Calma 10 Sur 0.1 -- -- 92
2019-11-27 20:00:00 11 4 Sudoeste 12 Sur 0.6 -- -- 89
2019-11-27 19:00:00 13 3 Oeste 27 Sudoeste 0.1 -- -- 66
2019-11-27 18:00:00 14.6 12 Sudoeste 39 Sudoeste 0 -- -- 51
2019-11-27 17:00:00 15.3 11 Sudoeste 28 Sur 0 -- -- 50
2019-11-27 16:00:00 15.9 8 Sudoeste 33 Sudoeste 0 -- -- 48
2019-11-27 15:00:00 16 11 Sudoeste 34 Sudoeste 0 -- -- 47
2019-11-27 14:00:00 16.6 10 Sudoeste 27 Sudoeste 0 -- -- 46
2019-11-27 06:00:00 12.7 8 Sudoeste 22 Sur 0 -- -- 53
2019-11-27 05:00:00 14.1 12 Sudoeste 25 Sudoeste 0 -- -- 50
2019-11-27 04:00:00 14.5 10 Sudoeste 32 Sudoeste 0 -- -- 51
2019-11-27 03:00:00 15.4 19 Sur 45 Sur 0 -- -- 50
2019-11-27 02:00:00 16.2 15 Sudoeste 38 Sur 0 -- -- 51
2019-11-27 01:00:00 16.4 15 Sudoeste 36 Sudoeste 0 -- -- 52
2019-11-27 00:00:00 16.3 13 Sudoeste 28 Sudoeste 0.2 -- -- 58
2019-11-26 23:00:00 16 16 Sudoeste 33 Sudoeste 0.3 -- -- 64
2019-11-26 22:00:00 14.8 6 Noroeste 27 Sudoeste 2.3 -- -- 79
2019-11-26 21:00:00 15.7 7 Noroeste 39 Sudoeste 0.1 -- -- 68
2019-11-26 20:00:00 16.6 3 Sudeste 41 Este 0 -- -- 57
2019-11-26 19:00:00 17.7 13 Sur 38 Sudoeste 0 -- -- 52
2019-11-26 18:00:00 17.6 9 Sudeste 27 Sudeste 0 -- -- 54
2019-11-26 17:00:00 17.1 10 Sur 39 Sur 0 -- -- 56
2019-11-26 16:00:00 16.9 17 Sur 49 Sudoeste 0 -- -- 54
2019-11-26 15:00:00 17 15 Sur 45 Sudeste 0.1 -- -- 53
2019-11-26 14:00:00 17 15 Sur 31 Sur 0 -- -- 53
2019-11-26 13:00:00 16.8 9 Noroeste 18 Noroeste 0 -- -- 56
2019-11-26 12:00:00 16.2 3 Sudoeste 23 Noroeste 0 -- -- 54
2019-11-26 11:00:00 15.6 2 Sudoeste 17 Sudoeste 0 -- -- 66
2019-11-26 10:00:00 9.9 0 Calma 8 Noroeste 0 -- -- 95
2019-11-26 09:00:00 7.3 0 Calma 6 Sudoeste 0 -- -- 97
2019-11-26 08:00:00 7.4 0 Calma 8 Sudeste 0 -- -- 97
2019-11-26 07:00:00 6.8 0 Calma 8 Norte 0 -- -- 97
2019-11-26 06:00:00 6.4 0 Calma 10 Sur 0 -- -- 97
2019-11-26 05:00:00 6.5 0 Calma 10 Norte 0 -- -- 97
2019-11-26 04:00:00 6.9 0 Calma 6 Nordeste 0 -- -- 97
2019-11-26 03:00:00 7.3 0 Calma 5 Nordeste 0 -- -- 97
2019-11-26 02:00:00 8 0 Calma 6 Nordeste 0.1 -- -- 97
2019-11-26 01:00:00 8.6 0 Calma 4 Nordeste 0 -- -- 97
2019-11-26 00:00:00 8.4 0 Calma 5 Sudoeste 0 -- -- 96
2019-11-25 23:00:00 8.2 0 Calma 3 Norte 0 -- -- 94
2019-11-25 22:00:00 9.6 0 Calma 3 Sudoeste 0 -- -- 93
2019-11-25 21:00:00 11.3 3 Sudoeste 5 Sudoeste 0 -- -- 93
2019-11-25 20:00:00 12.1 0 Calma 4 Sudeste 0 -- -- 92
2019-11-25 19:00:00 12.6 0 Calma 2 Noroeste 0 -- -- 89
2019-11-25 18:00:00 13.2 0 Calma 3 Sur 0 -- -- 85
2019-11-25 17:00:00 14.2 0 Calma 11 Este 0 -- -- 79
2019-11-25 16:00:00 14.9 5 Este 17 Este 0 -- -- 71
2019-11-25 15:00:00 16 8 Este 23 Este 0 -- -- 65
2019-11-25 14:00:00 17 3 Sudeste 6 Nordeste 0 -- -- 60
2019-11-25 13:00:00 15.4 2 Sudeste 5 Este 0 -- -- 65
2019-11-25 12:00:00 13.1 0 Calma 5 Sudeste 0 -- -- 74
2019-11-25 11:00:00 10.7 0 Calma 4 Sudeste 0 -- -- 87
2019-11-25 10:00:00 8.1 0 Calma 7 Noroeste 0 -- -- 97
2019-11-25 09:00:00 7.2 0 Calma 6 Sur 0 -- -- 97
2019-11-25 08:00:00 5.7 2 Sudoeste 4 Sur 0 -- -- 97
2019-11-25 07:00:00 5.8 0 Calma 4 Norte 0 -- -- 97
2019-11-25 06:00:00 6.2 0 Calma 3 Sudeste 0 -- -- 97
2019-11-25 05:00:00 6.2 2 Sur 3 Sur 0 -- -- 97
2019-11-25 04:00:00 7.1 0 Calma 5 Este 0 -- -- 97
2019-11-25 03:00:00 7.6 0 Calma 3 Sudeste 0 -- -- 97
2019-11-25 02:00:00 7.8 0 Calma 5 Sudeste 0 -- -- 96
2019-11-25 01:00:00 7.3 0 Calma 8 Sur 0 -- -- 96
2019-11-25 00:00:00 8.4 0 Calma 8 Sudeste 0.8 -- -- 96
2019-11-24 23:00:00 7.9 0 Calma 11 Este 0.4 -- -- 96
2019-11-24 22:00:00 7.2 2 Sur 8 Sudoeste 0 -- -- 96
2019-11-24 21:00:00 7.2 0 Calma 6 Nordeste 0 -- -- 96
2019-11-24 20:00:00 6.8 0 Calma 6 Sudeste 0 -- -- 96
2019-11-24 19:00:00 7.4 0 Calma 6 Sudeste 0 -- -- 93
2019-11-24 18:00:00 9.2 0 Calma 4 Sudoeste 0 -- -- 87
2019-11-24 17:00:00 11.6 0 Calma 4 Sur 0 -- -- 83
2019-11-24 16:00:00 12.2 2 Sudoeste 10 Norte 0 -- -- 68
2019-11-24 15:00:00 12.3 4 Noroeste 8 Noroeste 0 -- -- 73
2019-11-24 14:00:00 11.3 2 Noroeste 5 Noroeste 0 -- -- 82
2019-11-24 13:00:00 10.7 0 Calma 4 Sudeste 0 -- -- 89
2019-11-24 12:00:00 9.1 0 Calma 4 Norte 0.4 -- -- 94
2019-11-24 11:00:00 8.9 0 Calma 6 Sudoeste 0.7 -- -- 96
2019-11-24 10:00:00 8.2 0 Calma 7 Sudoeste 0.9 -- -- 97
2019-11-24 09:00:00 7.7 3 Nordeste 8 Sur 1.5 -- -- 97
2019-11-24 08:00:00 7.5 3 Norte 5 Sur 2.9 -- -- 97
2019-11-24 07:00:00 7.5 0 Calma 6 Noroeste 4.2 -- -- 97
2019-11-24 06:00:00 7.6 0 Calma 8 Sudeste 2.7 -- -- 96
2019-11-24 05:00:00 7.6 0 Calma 10 Sur 3.7 -- -- 96
2019-11-24 04:00:00 7.7 0 Calma 5 Nordeste 2.1 -- -- 96
2019-11-24 03:00:00 7.7 3 Sudeste 7 Sudeste 0.4 -- -- 96
2019-11-24 02:00:00 7.9 0 Calma 5 Sur 0.5 -- -- 96
2019-11-24 01:00:00 8 0 Calma 9 Sur 1.9 -- -- 96
2019-11-24 00:00:00 8.2 0 Calma 7 Norte 4 -- -- 96
2019-11-23 23:00:00 8.3 0 Calma 8 Sudoeste 1.9 -- -- 96
2019-11-23 22:00:00 8.3 0 Calma 7 Sudoeste 1.5 -- -- 96
2019-11-23 21:00:00 8.4 2 Sur 9 Sur 2.1 -- -- 95
2019-11-23 20:00:00 8.6 0 Calma 16 Sudoeste 1 -- -- 93
2019-11-23 19:00:00 9.1 3 Sudoeste 17 Sudoeste 0.3 -- -- 86
2019-11-23 18:00:00 9.6 5 Sudoeste 32 Oeste 0.3 -- -- 83
2019-11-23 17:00:00 9.5 3 Sudoeste 27 Noroeste 2.9 -- -- 85
2019-11-23 16:00:00 10.5 3 Noroeste 22 Norte 0.3 -- -- 75
2019-11-23 15:00:00 10.2 8 Oeste 30 Noroeste 1.6 -- -- 77
2019-11-23 14:00:00 10.7 6 Noroeste 41 Noroeste 1.3 -- -- 72
2019-11-23 13:00:00 11 6 Oeste 43 Noroeste 0.6 -- -- 72
2019-11-23 12:00:00 9.7 7 Oeste 46 Norte 3.8 -- -- 78
2019-11-23 11:00:00 9.5 2 Oeste 39 Sudoeste 4.1 -- -- 86
2019-11-23 10:00:00 9.9 7 Sudoeste 32 Noroeste 1.7 -- -- 83
2019-11-23 09:00:00 8.7 4 Noroeste 13 Norte 2.4 -- -- 92
2019-11-23 08:00:00 8.7 2 Noroeste 12 Noroeste 2.7 -- -- 90
2019-11-23 07:00:00 9.1 6 Noroeste 19 Sur 1.4 -- -- 87
2019-11-23 06:00:00 10.3 8 Oeste 19 Sudoeste 1 -- -- 76
2019-11-23 05:00:00 12.1 5 Noroeste 34 Sudoeste 0 -- -- 59
2019-11-23 04:00:00 13.1 14 Sudoeste 44 Sur 0 -- -- 51
2019-11-23 03:00:00 11.8 12 Sudoeste 24 Sudoeste 0 -- -- 64
2019-11-23 02:00:00 9.2 0 Calma 22 Sudoeste 0 -- -- 79
2019-11-23 01:00:00 9.6 4 Sudoeste 13 Sur 0 -- -- 88
2019-11-23 00:00:00 9 0 Calma 12 Sur 0 -- -- 92
2019-11-22 23:00:00 9.8 2 Norte 13 Sur 0 -- -- 92
2019-11-22 22:00:00 11.2 7 Noroeste 35 Sudoeste 0.4 -- -- 86
2019-11-22 21:00:00 9.3 3 Nordeste 17 Sur 0.9 -- -- 93
2019-11-22 20:00:00 10.9 9 Oeste 33 Noroeste 4.1 -- -- 90
2019-11-22 19:00:00 12.7 11 Sur 36 Sudeste 0.2 -- -- 66
2019-11-22 18:00:00 13.4 5 Sur 36 Sudeste 0 -- -- 60
2019-11-22 17:00:00 13.4 13 Sur 58 Sudoeste 0.1 -- -- 59
2019-11-22 16:00:00 12.4 8 Sudeste 49 Este 0.2 -- -- 64
2019-11-22 15:00:00 13 17 Sur 57 Sudoeste 0 -- -- 57
2019-11-22 14:00:00 14 13 Sur 50 Sudoeste 0 -- -- 55
2019-11-22 13:00:00 12.7 19 Sur 51 Sur 0 -- -- 57
2019-11-22 12:00:00 12.2 12 Sur 43 Sudeste 0 -- -- 60
2019-11-22 11:00:00 11.6 5 Sudeste 47 Sudeste 0 -- -- 61
2019-11-22 10:00:00 12.1 13 Sur 56 Sudoeste 0 -- -- 54
2019-11-22 09:00:00 12.4 8 Sur 57 Sudeste 0 -- -- 53
2019-11-22 08:00:00 11.8 6 Sudeste 30 Sudeste 0 -- -- 54
2019-11-22 07:00:00 11.1 3 Sudeste 31 Sudoeste 0 -- -- 57
2019-11-22 06:00:00 11.3 3 Sur 23 Sudoeste 0 -- -- 56
2019-11-22 05:00:00 10.5 3 Noroeste 17 Sudeste 0 -- -- 60
2019-11-22 04:00:00 10.5 6 Sur 31 Sudoeste 0 -- -- 60
2019-11-22 03:00:00 10.4 8 Sur 35 Sudeste 0 -- -- 60
2019-11-22 02:00:00 9.1 12 Sur 23 Sudeste 0 -- -- 75
2019-11-22 01:00:00 3.8 3 Noroeste 10 Sudoeste 0 -- -- 97
2019-11-22 00:00:00 3 0 Calma 13 Sur 0 -- -- 97
2019-11-21 23:00:00 2.5 0 Calma 7 Sur 0 -- -- 96
2019-11-21 22:00:00 3.4 0 Calma 6 Sur 0 -- -- 96
2019-11-21 21:00:00 4 0 Calma 5 Noroeste 0 -- -- 94
2019-11-21 20:00:00 4.8 0 Calma 6 Sur 0 -- -- 92
2019-11-21 19:00:00 6 0 Calma 9 Sur 0 -- -- 87
2019-11-21 18:00:00 7.8 0 Calma 9 Sudoeste 0 -- -- 78
2019-11-21 17:00:00 11.1 0 Calma 10 Sudoeste 0 -- -- 64
2019-11-21 16:00:00 13.8 5 Sur 21 Sur 0 -- -- 51
2019-11-21 15:00:00 14.1 10 Sur 30 Sudeste 0 -- -- 51
2019-11-21 14:00:00 14.2 6 Sudoeste 19 Sudoeste 0 -- -- 48
2019-11-21 13:00:00 13.1 2 Sudoeste 25 Sur 0 -- -- 52
2019-11-21 12:00:00 11.8 13 Sur 27 Sudeste 0 -- -- 55
2019-11-21 11:00:00 12.2 10 Sur 21 Sudeste 0 -- -- 55
2019-11-21 10:00:00 9.8 3 Norte 16 Oeste 0 -- -- 68
2019-11-21 09:00:00 5.9 4 Noroeste 9 Noroeste 0 -- -- 88
2019-11-21 08:00:00 5.1 0 Calma 22 Sur 0 -- -- 86
2019-11-21 07:00:00 8.6 5 Sur 21 Sur 0 -- -- 72
2019-11-21 06:00:00 7.1 2 Noroeste 10 Noroeste 0 -- -- 79
2019-11-21 05:00:00 8.1 4 Noroeste 27 Sudeste 0 -- -- 68
2019-11-21 04:00:00 8.5 2 Sudoeste 23 Sur 0 -- -- 68
2019-11-21 03:00:00 9.3 8 Sur 31 Sudeste 0 -- -- 61
2019-11-21 02:00:00 9.1 7 Sur 37 Sur 0 -- -- 61
2019-11-21 01:00:00 9.2 9 Sur 28 Sur 0 -- -- 60
2019-11-21 00:00:00 9.6 6 Nordeste 25 Sudeste 0 -- -- 56
2019-11-20 23:00:00 9.9 15 Sur 36 Sudoeste 0 -- -- 54
2019-11-20 22:00:00 11 14 Sur 37 Sudoeste 0 -- -- 50
2019-11-20 21:00:00 11.6 12 Sur 27 Sur 0 -- -- 48
2019-11-20 20:00:00 9.1 0 Calma 23 Sudoeste 0 -- -- 63
2019-11-20 19:00:00 10.3 0 Calma 18 Sudeste 0 -- -- 50
2019-11-20 18:00:00 11.5 4 Sur 21 Sudeste 0 -- -- 45
2019-11-20 17:00:00 12.3 4 Este 34 Sudoeste 0 -- -- 44
2019-11-20 16:00:00 12.4 4 Sur 40 Sur 0 -- -- 44
2019-11-20 15:00:00 12.4 21 Sur 39 Sudoeste 0 -- -- 42
2019-11-20 14:00:00 12.1 16 Sur 42 Sudoeste 0 -- -- 44
2019-11-20 13:00:00 11.7 16 Sur 40 Sudoeste 0 -- -- 45
2019-11-20 12:00:00 10.9 15 Sur 40 Sudoeste 0 -- -- 48
2019-11-20 11:00:00 9.9 10 Sur 27 Sur 0 -- -- 53
2019-11-20 10:00:00 5.9 4 Noroeste 19 Norte 0 -- -- 85
2019-11-20 09:00:00 3.4 6 Noroeste 20 Oeste 0 -- -- 93
2019-11-20 08:00:00 1 2 Noroeste 14 Norte 0 -- -- 97
2019-11-20 07:00:00 0 0 Calma 7 Noroeste 0 -- -- 97
2019-11-20 06:00:00 0.1 0 Calma 6 Noroeste 0 -- -- 97
2019-11-20 05:00:00 0.2 0 Calma 6 Noroeste 0 -- -- 97
2019-11-20 04:00:00 0.6 0 Calma 5 Noroeste 0 -- -- 97
2019-11-20 03:00:00 0.7 0 Calma 5 Sudoeste 0 -- -- 97
2019-11-20 02:00:00 1 0 Calma 5 Sur 0 -- -- 97
2019-11-20 01:00:00 1.4 0 Calma 4 Sur 0 -- -- 97
2019-11-20 00:00:00 1.4 0 Calma 3 Sur 0 -- -- 97
2019-11-19 23:00:00 1 0 Calma 3 Noroeste 0 -- -- 96
2019-11-19 22:00:00 1.1 0 Calma 4 Sudoeste 0 -- -- 95
2019-11-19 21:00:00 1.8 0 Calma 6 Norte 0 -- -- 95
2019-11-19 20:00:00 2.1 0 Calma 3 Oeste 0 -- -- 92
2019-11-19 19:00:00 3.3 0 Calma 4 Sudoeste 0 -- -- 89
2019-11-19 18:00:00 5.6 0 Calma 6 Sudoeste 0 -- -- 83
2019-11-19 17:00:00 8.2 3 Sudoeste 5 Sudoeste 0 -- -- 73
2019-11-19 16:00:00 10.7 0 Calma 6 Nordeste 0 -- -- 65
2019-11-19 15:00:00 10.1 0 Calma 5 Norte 0 -- -- 61
2019-11-19 14:00:00 8 0 Calma 5 Sudoeste 0 -- -- 77
2019-11-19 13:00:00 6.1 0 Calma 6 Este 0 -- -- 86
2019-11-19 12:00:00 4.3 2 Sudeste 5 Sudeste 0 -- -- 95
2019-11-19 11:00:00 2.6 2 Nordeste 6 Norte 0 -- -- 97
2019-11-19 10:00:00 2.4 0 Calma 8 Este 0 -- -- 97
2019-11-19 09:00:00 2.6 2 Sudeste 5 Sur 0 -- -- 97
2019-11-19 08:00:00 2.7 2 Sur 6 Nordeste 0 -- -- 97
2019-11-19 07:00:00 2.9 0 Calma 5 Sudeste 0 -- -- 96
2019-11-19 06:00:00 3.2 0 Calma 4 Este 0 -- -- 96
2019-11-19 05:00:00 3.3 0 Calma 3 Nordeste 0 -- -- 96
2019-11-19 04:00:00 3.8 0 Calma 3 Sudeste 0 -- -- 96
2019-11-19 03:00:00 3.7 0 Calma 3 Sudoeste 0 -- -- 96
2019-11-19 02:00:00 3.6 0 Calma 3 Este 0 -- -- 97
2019-11-19 01:00:00 3.4 0 Calma 4 Sudeste 0 -- -- 96
2019-11-19 00:00:00 3.5 0 Calma 2 Noroeste 0 -- -- 96
2019-11-18 23:00:00 3.1 0 Calma 4 Norte 0 -- -- 96
2019-11-18 22:00:00 2.9 0 Calma 2 Norte 0 -- -- 94
2019-11-18 21:00:00 3.7 0 Calma 4 Este 0 -- -- 92
2019-11-18 20:00:00 5.5 0 Calma 0 Calma 0 -- -- 92
2019-11-18 19:00:00 6.1 0 Calma 3 Sur 0 -- -- 90
2019-11-18 18:00:00 6.8 0 Calma 0 Calma 0 -- -- 86
2019-11-18 17:00:00 7.3 0 Calma 4 Sudoeste 0 -- -- 79
2019-11-18 16:00:00 8.1 0 Calma 11 Norte 0 -- -- 68
2019-11-18 15:00:00 8 5 Noroeste 14 Nordeste 0 -- -- 61
2019-11-18 14:00:00 8.5 0 Calma 10 Norte 0 -- -- 63
2019-11-18 13:00:00 8.1 6 Norte 14 Nordeste 0 -- -- 61
2019-11-18 12:00:00 7.5 0 Calma 4 Noroeste 0 -- -- 84
2019-11-18 11:00:00 6.2 2 Sudoeste 5 Nordeste 0 -- -- 94
2019-11-18 10:00:00 5.5 0 Calma 3 Sudeste 0 -- -- 96
2019-11-18 09:00:00 5.3 0 Calma 3 Noroeste 0 -- -- 96
2019-11-18 08:00:00 5.6 0 Calma 4 Sudoeste 0.1 -- -- 96
2019-11-18 07:00:00 5.8 0 Calma 3 Norte 0 -- -- 96
2019-11-18 06:00:00 5.9 0 Calma 3 Este 0 -- -- 96
2019-11-18 05:00:00 6 0 Calma 7 Noroeste 0.1 -- -- 94
2019-11-18 04:00:00 6.5 5 Norte 17 Norte 1.2 -- -- 92
2019-11-18 03:00:00 6.9 2 Noroeste 6 Sudeste 1.2 -- -- 97
2019-11-18 02:00:00 7.1 3 Sudoeste 4 Sudoeste 2.2 -- -- 96
2019-11-18 01:00:00 7.3 3 Noroeste 10 Sudoeste 2 -- -- 95
2019-11-18 00:00:00 7.6 0 Calma 4 Sur 1.3 -- -- 97
2019-11-17 23:00:00 7.7 0 Calma 6 Oeste 0.8 -- -- 97
2019-11-17 22:00:00 7.7 0 Calma 5 Sudoeste 0.5 -- -- 97
2019-11-17 21:00:00 7.8 0 Calma 4 Norte 0.6 -- -- 97
2019-11-17 20:00:00 7.9 0 Calma 4 Sudeste 0.3 -- -- 97
2019-11-17 19:00:00 8 2 Sudoeste 6 Sur 0 -- -- 96
2019-11-17 18:00:00 8.3 0 Calma 8 Sudoeste 1.4 -- -- 96
2019-11-17 17:00:00 8.7 0 Calma 4 Este 1.9 -- -- 95
2019-11-17 16:00:00 8.9 0 Calma 6 Nordeste 0.6 -- -- 93
2019-11-17 15:00:00 8.6 2 Nordeste 8 Noroeste 0.4 -- -- 92
2019-11-17 14:00:00 8.3 4 Noroeste 9 Noroeste 0.8 -- -- 88
2019-11-17 13:00:00 8.6 3 Noroeste 9 Noroeste 0.6 -- -- 88
2019-11-17 12:00:00 8 0 Calma 15 Noroeste 0.2 -- -- 89
2019-11-17 11:00:00 7.5 0 Calma 5 Noroeste 0 -- -- 92
2019-11-17 10:00:00 6.9 0 Calma 4 Nordeste 0 -- -- 97
2019-11-17 09:00:00 6.5 0 Calma 4 Noroeste 0 -- -- 97
2019-11-17 08:00:00 6 0 Calma 2 Sudeste 0.2 -- -- 97
2019-11-17 07:00:00 6.1 0 Calma 5 Noroeste 1.2 -- -- 97
2019-11-17 06:00:00 6.1 0 Calma 4 Noroeste 0.5 -- -- 97
2019-11-17 05:00:00 6.1 0 Calma 5 Noroeste 0.7 -- -- 97
2019-11-17 04:00:00 5.9 0 Calma 3 Norte 0.1 -- -- 97
2019-11-17 03:00:00 5.8 0 Calma 5 Sur 0.2 -- -- 97
2019-11-17 02:00:00 5.8 0 Calma 3 Sur 0.1 -- -- 97
2019-11-17 01:00:00 5.6 0 Calma 5 Nordeste 0 -- -- 97
2019-11-17 00:00:00 5.9 0 Calma 4 Norte 0 -- -- 97
2019-11-16 23:00:00 6 0 Calma 5 Sur 0 -- -- 97
2019-11-16 22:00:00 6 0 Calma 11 Nordeste 1 -- -- 96
2019-11-16 21:00:00 6.2 0 Calma 13 Sur 1.1 -- -- 96
2019-11-16 20:00:00 6 3 Sudoeste 12 Sur 0.7 -- -- 96
2019-11-16 19:00:00 5.8 0 Calma 8 Sur 0.4 -- -- 96
2019-11-16 18:00:00 5.8 3 Noroeste 9 Noroeste 1.9 -- -- 96
2019-11-16 17:00:00 5.5 0 Calma 8 Sudeste 0.7 -- -- 95
2019-11-16 16:00:00 5.2 3 Nordeste 6 Nordeste 2.7 -- -- 95
2019-11-16 15:00:00 5.1 0 Calma 16 Oeste 3.3 -- -- 93
2019-11-16 14:00:00 5.1 0 Calma 11 Noroeste 2.2 -- -- 94
2019-11-16 13:00:00 4.8 5 Noroeste 13 Noroeste 4.5 -- -- 94
2019-11-16 12:00:00 4.6 0 Calma 6 Este 1.8 -- -- 97
2019-11-16 11:00:00 3.6 0 Calma 4 Norte 1 -- -- 97
2019-11-16 10:00:00 2.8 0 Calma 5 Sur 0.1 -- -- 97
2019-11-16 09:00:00 2.5 0 Calma 4 Sur 0 -- -- 97
2019-11-16 08:00:00 2.3 0 Calma 5 Sudeste 0 -- -- 97
2019-11-16 07:00:00 2.4 0 Calma 5 Noroeste 0 -- -- 97
2019-11-16 06:00:00 2.6 2 Sudoeste 4 Sudoeste 0 -- -- 97
2019-11-16 05:00:00 2.7 0 Calma 4 Sur 0 -- -- 97
2019-11-16 04:00:00 2.7 0 Calma 4 Sudoeste 0 -- -- 97
2019-11-16 03:00:00 2.5 0 Calma 2 Noroeste 0 -- -- 97
2019-11-16 02:00:00 2.2 0 Calma 4 Sur 0 -- -- 97
2019-11-16 01:00:00 2.4 0 Calma 2 Nordeste 0 -- -- 96
2019-11-16 00:00:00 2.3 0 Calma 3 Sudoeste 0 -- -- 95
2019-11-15 23:00:00 3.3 4 Sur 10 Noroeste 0 -- -- 94
2019-11-15 22:00:00 4.6 4 Sudoeste 8 Sur 0.2 -- -- 96
2019-11-15 21:00:00 4.5 0 Calma 4 Sur 0.1 -- -- 94
2019-11-15 20:00:00 4.7 0 Calma 10 Oeste 0 -- -- 92
2019-11-15 19:00:00 4.8 3 Oeste 17 Sudoeste 1.2 -- -- 90
2019-11-15 18:00:00 5.9 4 Sudoeste 14 Noroeste 0.5 -- -- 82
2019-11-15 17:00:00 7 5 Noroeste 13 Noroeste 0 -- -- 82
2019-11-15 16:00:00 8 0 Calma 9 Sudoeste 0.3 -- -- 80
2019-11-15 15:00:00 8.6 4 Sudoeste 8 Sudoeste 0 -- -- 77
2019-11-15 14:00:00 7.7 4 Sur 19 Norte 0.8 -- -- 88
2019-11-15 13:00:00 7.3 2 Sur 17 Noroeste 1.6 -- -- 92
2019-11-15 12:00:00 5.4 6 Noroeste 15 Noroeste 1.2 -- -- 89
2019-11-15 11:00:00 5.5 4 Noroeste 14 Noroeste 1.9 -- -- 85
2019-11-15 10:00:00 6.3 5 Noroeste 29 Sudoeste 0.4 -- -- 78
2019-11-15 09:00:00 6.2 4 Oeste 24 Sudoeste 0.1 -- -- 79
2019-11-15 08:00:00 5.9 3 Oeste 19 Sur 0.4 -- -- 82
2019-11-15 07:00:00 5.9 2 Noroeste 14 Sur 0.2 -- -- 81
2019-11-15 06:00:00 4.8 0 Calma 8 Norte 0 -- -- 96
2019-11-15 05:00:00 4.7 0 Calma 4 Nordeste 0.1 -- -- 96
2019-11-15 04:00:00 4.6 2 Sudoeste 6 Sur 0 -- -- 96
2019-11-15 03:00:00 4.8 0 Calma 3 Sudeste 0.2 -- -- 96
2019-11-15 02:00:00 4.9 0 Calma 6 Norte 0.5 -- -- 95
2019-11-15 01:00:00 4.9 0 Calma 5 Sur 1.1 -- -- 95
2019-11-15 00:00:00 5.1 0 Calma 13 Oeste 0.8 -- -- 93
2019-11-14 23:00:00 5.3 2 Sudoeste 5 Sudoeste 2.6 -- -- 96
2019-11-14 22:00:00 5.1 0 Calma 7 Noroeste 0.3 -- -- 95
2019-11-14 21:00:00 5 3 Norte 11 Sudeste 0.8 -- -- 94
2019-11-14 20:00:00 4.7 3 Noroeste 9 Sudoeste 0 -- -- 94
2019-11-14 19:00:00 4 0 Calma 4 Sudoeste 0 -- -- 91
2019-11-14 18:00:00 5.2 3 Sur 8 Sudeste 0 -- -- 85
2019-11-14 17:00:00 7.4 5 Nordeste 19 Sudeste 0 -- -- 73
2019-11-14 16:00:00 8.9 4 Nordeste 19 Nordeste 0 -- -- 61
2019-11-14 15:00:00 11.2 10 Sudoeste 29 Sudoeste 0 -- -- 44
2019-11-14 14:00:00 11.7 7 Sudoeste 28 Sur 0 -- -- 45
2019-11-14 13:00:00 10.9 10 Sudoeste 20 Sudoeste 0 -- -- 48
2019-11-14 12:00:00 9.3 3 Este 10 Nordeste 0 -- -- 67
2019-11-14 11:00:00 8.4 2 Este 8 Sudeste 0 -- -- 77
2019-11-14 10:00:00 5.6 3 Sur 5 Sur 0 -- -- 95
2019-11-14 09:00:00 5 0 Calma 3 Norte 0 -- -- 95
2019-11-14 08:00:00 4.7 0 Calma 6 Nordeste 0 -- -- 94
2019-11-14 07:00:00 5 2 Norte 13 Sur 0.4 -- -- 91
2019-11-14 06:00:00 5.4 5 Sudoeste 26 Sudoeste 3.3 -- -- 88
2019-11-14 05:00:00 6.4 0 Calma 11 Noroeste 2.5 -- -- 91
2019-11-14 04:00:00 7.4 0 Calma 17 Oeste 4 -- -- 90
2019-11-14 03:00:00 8.3 2 Oeste 15 Noroeste 3.6 -- -- 87
2019-11-14 02:00:00 10 7 Noroeste 24 Noroeste 0.1 -- -- 79
2019-11-14 01:00:00 7.2 0 Calma 11 Noroeste 0 -- -- 96
2019-11-14 00:00:00 7.1 0 Calma 6 Norte 0 -- -- 95
2019-11-13 23:00:00 7.5 2 Noroeste 6 Sur 0 -- -- 95
2019-11-13 22:00:00 7.5 3 Noroeste 6 Sur 0 -- -- 95
2019-11-13 21:00:00 7.4 4 Sur 8 Sur 0 -- -- 95
2019-11-13 20:00:00 7.3 0 Calma 4 Sudeste 0 -- -- 93
2019-11-13 19:00:00 7.6 0 Calma 4 Sudoeste 0 -- -- 92
2019-11-13 18:00:00 8.2 0 Calma 7 Sur 0 -- -- 87
2019-11-13 17:00:00 9.7 2 Sudoeste 18 Sudoeste 0 -- -- 77
2019-11-13 16:00:00 11.4 3 Oeste 19 Noroeste 0 -- -- 67
2019-11-13 15:00:00 10.9 4 Sudoeste 9 Noroeste 0 -- -- 72
2019-11-13 14:00:00 11.2 0 Calma 14 Norte 0.1 -- -- 77
2019-11-13 13:00:00 11.2 2 Noroeste 14 Sur 0.3 -- -- 77
2019-11-13 12:00:00 11.4 0 Calma 5 Sudoeste 0 -- -- 78
2019-11-13 11:00:00 9.9 0 Calma 4 Nordeste 0 -- -- 93
2019-11-13 10:00:00 8.8 0 Calma 4 Noroeste 0.1 -- -- 97
2019-11-13 09:00:00 8.3 0 Calma 3 Nordeste 0.1 -- -- 97
2019-11-13 08:00:00 7.9 0 Calma 4 Sur 0.4 -- -- 97
2019-11-13 07:00:00 7.9 0 Calma 3 Noroeste 0 -- -- 97
2019-11-13 06:00:00 7.8 0 Calma 7 Nordeste 0.1 -- -- 97
2019-11-13 05:00:00 7.7 0 Calma 2 Nordeste 0 -- -- 97
2019-11-13 04:00:00 7.7 0 Calma 3 Noroeste 0 -- -- 97
2019-11-13 03:00:00 7.6 3 Nordeste 6 Este 0 -- -- 97
2019-11-13 02:00:00 7.7 0 Calma 5 Nordeste 0 -- -- 97
2019-11-13 01:00:00 8.1 0 Calma 6 Sur 0 -- -- 97
2019-11-13 00:00:00 8.3 0 Calma 4 Sur 0 -- -- 97
2019-11-12 23:00:00 8.5 0 Calma 3 Sudeste 0 -- -- 97
2019-11-12 22:00:00 8.8 0 Calma 3 Noroeste 0.1 -- -- 97
2019-11-12 21:00:00 8.9 0 Calma 3 Norte 0 -- -- 96
2019-11-12 20:00:00 9 0 Calma 4 Sudoeste 0 -- -- 96
2019-11-12 19:00:00 9.3 0 Calma 3 Noroeste 0 -- -- 95
2019-11-12 18:00:00 9.8 0 Calma 3 Noroeste 0 -- -- 95
2019-11-12 17:00:00 10.3 0 Calma 4 Sudoeste 0 -- -- 93
2019-11-12 16:00:00 10.6 0 Calma 7 Noroeste 0 -- -- 89
2019-11-12 15:00:00 10.7 0 Calma 6 Nordeste 0.1 -- -- 91
2019-11-12 14:00:00 9.8 0 Calma 4 Noroeste 0.6 -- -- 93
2019-11-12 13:00:00 9.5 0 Calma 3 Nordeste 0.8 -- -- 95
2019-11-12 12:00:00 9.1 0 Calma 5 Norte 1.1 -- -- 97
2019-11-12 11:00:00 8.3 0 Calma 4 Sudeste 1 -- -- 97
2019-11-12 10:00:00 7.9 0 Calma 6 Norte 2.3 -- -- 97
2019-11-12 09:00:00 7.4 0 Calma 7 Norte 1.5 -- -- 97
2019-11-12 08:00:00 7.1 2 Noroeste 6 Sudoeste 1.6 -- -- 97
2019-11-12 07:00:00 7.1 0 Calma 5 Norte 0.8 -- -- 97
2019-11-12 06:00:00 6.8 2 Sudoeste 5 Sudoeste 0.6 -- -- 97
2019-11-12 05:00:00 6.8 2 Norte 5 Norte 1.8 -- -- 97
2019-11-12 04:00:00 6.8 0 Calma 5 Sudeste 1.4 -- -- 97
2019-11-12 03:00:00 6.7 0 Calma 4 Oeste 0.4 -- -- 97
2019-11-12 02:00:00 6.6 0 Calma 3 Sudoeste 0.1 -- -- 97
2019-11-12 01:00:00 6.6 3 Norte 6 Norte 0.1 -- -- 97
2019-11-12 00:00:00 6.7 0 Calma 8 Sudeste 0.3 -- -- 98
2019-11-11 23:00:00 7.3 3 Noroeste 9 Noroeste 1.2 -- -- 97
2019-11-11 22:00:00 7.2 2 Norte 6 Norte 0.1 -- -- 97
2019-11-11 21:00:00 7.4 0 Calma 4 Sudeste 0.1 -- -- 96
2019-11-11 20:00:00 7.8 0 Calma 6 Norte 0 -- -- 96
2019-11-11 19:00:00 8.2 0 Calma 14 Noroeste 0.8 -- -- 92
2019-11-11 18:00:00 8.5 0 Calma 15 Oeste 1.2 -- -- 90
2019-11-11 17:00:00 9 0 Calma 14 Norte 0.6 -- -- 92
2019-11-11 16:00:00 9.8 3 Oeste 21 Noroeste 0.5 -- -- 85
2019-11-11 15:00:00 9.9 3 Sudoeste 18 Sudoeste 0.3 -- -- 89
2019-11-11 14:00:00 8.2 3 Sur 7 Sur 2 -- -- 96
2019-11-11 13:00:00 7.4 0 Calma 3 Norte 1 -- -- 95
2019-11-11 12:00:00 6.9 2 Norte 4 Noroeste 0.8 -- -- 94
2019-11-11 11:00:00 6.1 0 Calma 0 Calma 0 -- -- 94
2019-11-11 10:00:00 5.1 0 Calma 3 Nordeste 0 -- -- 96
2019-11-11 09:00:00 4.9 0 Calma 4 Sur 0 -- -- 97
2019-11-11 08:00:00 4.3 0 Calma 3 Nordeste 0 -- -- 97
2019-11-11 07:00:00 4.2 0 Calma 4 Sudeste 0 -- -- 97
2019-11-11 06:00:00 4.2 0 Calma 5 Sur 0 -- -- 97
2019-11-11 05:00:00 4 0 Calma 4 Nordeste 0 -- -- 97
2019-11-11 04:00:00 4.2 0 Calma 6 Sur 0 -- -- 97
2019-11-11 03:00:00 4.3 2 Sur 4 Sur 0 -- -- 97
2019-11-11 02:00:00 4.3 0 Calma 6 Sur 0 -- -- 97
2019-11-11 01:00:00 4.4 2 Nordeste 8 Nordeste 0 -- -- 97
2019-11-11 00:00:00 4.6 0 Calma 4 Sudoeste 0 -- -- 97
2019-11-10 23:00:00 4.6 0 Calma 5 Sudeste 0 -- -- 97
2019-11-10 22:00:00 4.6 0 Calma 5 Noroeste 0 -- -- 97
2019-11-10 21:00:00 4.4 4 Norte 6 Norte 0 -- -- 97
2019-11-10 20:00:00 4.9 0 Calma 4 Noroeste 0 -- -- 96
2019-11-10 19:00:00 5.4 0 Calma 7 Sudoeste 0.1 -- -- 95
2019-11-10 18:00:00 5.8 2 Sur 9 Sudoeste 0.1 -- -- 95
2019-11-10 17:00:00 6.3 0 Calma 5 Nordeste 0.3 -- -- 93
2019-11-10 16:00:00 6.3 0 Calma 8 Nordeste 0.9 -- -- 92
2019-11-10 15:00:00 6.4 3 Nordeste 8 Nordeste 0.4 -- -- 92
2019-11-10 14:00:00 6.5 0 Calma 10 Sudeste 1.4 -- -- 94
2019-11-10 13:00:00 5.9 2 Nordeste 9 Noroeste 2.7 -- -- 95
2019-11-10 12:00:00 5.8 4 Noroeste 12 Sur 1.3 -- -- 94
2019-11-10 11:00:00 5.5 2 Oeste 6 Sudoeste 1.6 -- -- 95
2019-11-10 10:00:00 5.2 2 Sur 9 Noroeste 2.5 -- -- 96
2019-11-10 09:00:00 5.2 0 Calma 6 Oeste 3.2 -- -- 96
2019-11-10 08:00:00 5 2 Nordeste 12 Noroeste 4.2 -- -- 96
2019-11-10 07:00:00 5.5 2 Norte 9 Oeste 3.5 -- -- 96
2019-11-10 06:00:00 5.9 5 Oeste 11 Noroeste 1.5 -- -- 96
2019-11-10 05:00:00 6.3 0 Calma 15 Noroeste 2 -- -- 94
2019-11-10 04:00:00 6.5 0 Calma 15 Nordeste 1.5 -- -- 96
2019-11-10 03:00:00 6 3 Sudoeste 13 Sudoeste 1.6 -- -- 96
2019-11-10 02:00:00 5.9 0 Calma 8 Norte 1 -- -- 95
2019-11-10 01:00:00 6.5 0 Calma 14 Nordeste 1.8 -- -- 93
2019-11-10 00:00:00 7.2 4 Norte 13 Sudoeste 0.2 -- -- 94
2019-11-09 23:00:00 7.6 6 Sudoeste 14 Sudoeste 3.8 -- -- 90
2019-11-09 22:00:00 7.8 4 Noroeste 14 Sudoeste 3.7 -- -- 92
2019-11-09 21:00:00 8.5 3 Sudoeste 37 Noroeste 7 -- -- 86
2019-11-09 20:00:00 10.1 3 Noroeste 24 Oeste 1.2 -- -- 82
2019-11-09 19:00:00 11.3 5 Sudoeste 19 Sudoeste 0.2 -- -- 75
2019-11-09 18:00:00 11.1 8 Sudoeste 21 Sudoeste 0.7 -- -- 83
2019-11-09 17:00:00 9.3 3 Noroeste 10 Noroeste 0.4 -- -- 91
2019-11-09 16:00:00 9.4 3 Noroeste 14 Noroeste 1.9 -- -- 89
2019-11-09 15:00:00 10.3 6 Noroeste 18 Noroeste 0.6 -- -- 75
2019-11-09 14:00:00 11.1 4 Sudoeste 26 Sudoeste 0.1 -- -- 70
2019-11-09 13:00:00 11.3 0 Calma 5 Sudeste 0 -- -- 86
2019-11-09 12:00:00 10.4 2 Norte 6 Sur 0 -- -- 89
2019-11-09 11:00:00 9.3 0 Calma 5 Noroeste 0.1 -- -- 97
2019-11-09 10:00:00 8.4 3 Sudoeste 5 Sudoeste 1.3 -- -- 97
2019-11-09 09:00:00 8.1 3 Sudoeste 6 Sudoeste 1.4 -- -- 97
2019-11-09 08:00:00 7.7 2 Norte 6 Sudeste 2.7 -- -- 97
2019-11-09 07:00:00 7.7 0 Calma 10 Sudoeste 3.6 -- -- 97
2019-11-09 06:00:00 7.6 3 Norte 8 Noroeste 0.2 -- -- 96
2019-11-09 05:00:00 7.6 0 Calma 6 Norte 0.4 -- -- 96
2019-11-09 04:00:00 7.8 2 Noroeste 12 Sudoeste 1.4 -- -- 95
2019-11-09 03:00:00 8 6 Sudoeste 15 Sur 1.6 -- -- 89
2019-11-09 02:00:00 8.6 3 Noroeste 13 Sudoeste 1.5 -- -- 91
2019-11-09 01:00:00 8.3 8 Sudoeste 17 Sudoeste 1.3 -- -- 89
2019-11-09 00:00:00 8.1 3 Sudoeste 18 Norte 0.8 -- -- 92
2019-11-08 23:00:00 9 4 Oeste 19 Noroeste 5.9 -- -- 85
2019-11-08 22:00:00 9 4 Sudoeste 22 Oeste 1.2 -- -- 92
2019-11-08 21:00:00 9 6 Oeste 29 Norte 4.5 -- -- 85
2019-11-08 20:00:00 9.1 4 Noroeste 26 Noroeste 0.2 -- -- 89
2019-11-08 19:00:00 9 3 Oeste 10 Sudoeste 0.5 -- -- 92
2019-11-08 18:00:00 8.6 3 Sudoeste 15 Sudoeste 2.8 -- -- 95
2019-11-08 17:00:00 8.9 0 Calma 19 Oeste 0 -- -- 92
2019-11-08 16:00:00 8.7 0 Calma 13 Nordeste 1.1 -- -- 91
2019-11-08 15:00:00 7.4 2 Oeste 8 Noroeste 0.8 -- -- 93
2019-11-08 14:00:00 7.2 2 Noroeste 8 Sudeste 4.6 -- -- 93
2019-11-08 13:00:00 6 4 Sudeste 18 Sudoeste 4.8 -- -- 89
2019-11-08 12:00:00 6.6 4 Sudoeste 14 Noroeste 2.6 -- -- 82
2019-11-08 11:00:00 6.9 3 Oeste 21 Noroeste 1.3 -- -- 82
2019-11-08 10:00:00 6.8 4 Sudoeste 19 Sudoeste 1.2 -- -- 84
2019-11-08 09:00:00 6.7 0 Calma 14 Noroeste 0.9 -- -- 90
2019-11-08 08:00:00 6.2 0 Calma 9 Noroeste 1.7 -- -- 95
2019-11-08 07:00:00 5.7 0 Calma 8 Este 0.3 -- -- 95
2019-11-08 06:00:00 5.4 0 Calma 6 Noroeste 1.1 -- -- 95
2019-11-08 05:00:00 5.6 0 Calma 19 Sur 3.6 -- -- 89
2019-11-08 04:00:00 5.5 4 Noroeste 8 Norte 0.3 -- -- 95
2019-11-08 03:00:00 4.6 0 Calma 5 Sur 0 -- -- 97
2019-11-08 02:00:00 4.3 0 Calma 5 Nordeste 0 -- -- 97
2019-11-08 01:00:00 4.5 0 Calma 4 Sur 0 -- -- 97
2019-11-08 00:00:00 4.8 0 Calma 3 Sur 0 -- -- 97